Time;durP1;ratioP1;P1;durP2;ratioP2;P2;SDS_P1;SDS_P2;PMS_P1;PMS_P2;Temp;Humidity;BMP_temperature;BMP_pressure;BME280_temperature;BME280_humidity;BME280_pressure;Samples;Min_cycle;Max_cycle;Signal;HPM_P1;HPM_P2
2022/04/04 00:02:22;;;;;;;;;;;-2.20;99.90;;;-3.34;100.00;97583.38;5027821;28;19944;-48
2022/04/04 00:04:48;;;;;;;;;;;-2.20;99.90;;;-3.38;100.00;97586.72;5028516;28;19928;-48
2022/04/04 00:07:13;;;;;;;;;;;-2.20;99.90;;;-3.37;100.00;97591.03;5030604;28;20129;-49
2022/04/04 00:09:39;;;;;;;;;;;-2.20;99.90;;;-3.38;100.00;97583.28;5022692;28;19982;-50
2022/04/04 00:12:05;;;;;;;;;;;-2.30;99.90;;;-3.41;100.00;97583.19;5023132;28;20015;-50
2022/04/04 00:14:30;;;;;;;;;;;-2.20;99.90;;;-3.40;100.00;97585.81;5026424;28;19976;-52
2022/04/04 00:16:56;;;;;;;;;;;-2.20;99.90;;;-3.41;100.00;97576.34;5029411;28;19964;-52
2022/04/04 00:19:22;;;;;;;;;;;-2.30;99.90;;;-3.42;100.00;97579.75;5029966;28;20072;-53
2022/04/04 00:21:48;;;;;;;;;;;-2.30;99.90;;;-3.42;100.00;97579.75;5025463;28;19925;-53
2022/04/04 00:24:13;;;;;;;;;;;-2.30;99.90;;;-3.44;100.00;97581.44;5024564;28;20273;-50
2022/04/04 00:26:39;;;;;;;;;;;-2.30;99.90;;;-3.45;100.00;97577.09;5026553;28;19943;-51
2022/04/04 00:29:05;;;;;;;;;;;-2.30;99.90;;;-3.47;100.00;97574.50;5022103;28;19928;-51
2022/04/04 00:31:30;;;;;;;;;;;-2.30;99.90;;;-3.54;100.00;97561.44;5025167;28;19924;-49
2022/04/04 00:33:56;;;;;;;;;;;-2.30;99.90;;;-3.47;100.00;97576.22;5027212;28;20330;-52
2022/04/04 00:36:22;;;;;;;;;;;-2.20;99.90;;;-3.57;100.00;97569.09;5026397;28;20052;-51
2022/04/04 00:38:47;;;;;;;;;;;-2.30;99.90;;;-3.55;100.00;97565.75;5024925;28;19962;-53
2022/04/04 00:41:15;;;;;;;;;;;-2.30;99.90;;;-3.53;100.00;97574.38;5026235;28;20310;-52
2022/04/04 00:43:41;;;;;;;;;;;-2.40;99.90;;;-3.53;100.00;97576.94;5026520;28;19998;-51
2022/04/04 00:46:07;;;;;;;;;;;-2.30;99.90;;;-3.50;100.00;97576.13;5022796;28;19917;-52
2022/04/04 00:48:33;;;;;;;;;;;-2.40;99.90;;;-3.54;100.00;97570.03;5027551;28;20410;-52
2022/04/04 00:50:58;;;;;;;;;;;-2.30;99.90;;;-3.52;100.00;97570.94;5022863;28;19936;-52
2022/04/04 00:53:25;;;;;;;;;;;-2.40;99.90;;;-3.55;100.00;97568.31;5019644;28;20498;-53
2022/04/04 00:55:51;;;;;;;;;;;-2.40;99.90;;;-3.48;100.00;97562.47;5027111;28;19970;-50
2022/04/04 00:58:19;;;;;;;;;;;-2.30;99.90;;;-3.51;100.00;97558.94;5020372;28;20007;-49
2022/04/04 01:00:47;;;;;;;;;;;-2.40;99.90;;;-3.46;100.00;97572.81;5027300;28;19931;-49
2022/04/04 01:03:14;;;;;;;;;;;-2.30;99.90;;;-3.53;100.00;97560.63;5024520;28;19921;-50
2022/04/04 01:05:40;;;;;;;;;;;-2.30;99.90;;;-3.52;100.00;97559.78;5028360;28;20375;-51
2022/04/04 01:08:05;;;;;;;;;;;-2.30;99.90;;;-3.62;100.00;97547.50;5030405;28;19920;-51
2022/04/04 01:10:31;;;;;;;;;;;-2.40;99.90;;;-3.54;100.00;97564.03;5028998;28;20300;-49
2022/04/04 01:12:57;;;;;;;;;;;-2.40;99.90;;;-3.57;100.00;97562.28;5026786;28;19916;-52
2022/04/04 01:15:25;;;;;;;;;;;-2.30;99.90;;;-3.51;100.00;97569.25;5028537;28;19979;-52
2022/04/04 01:17:51;;;;;;;;;;;-2.40;99.90;;;-3.55;100.00;97565.75;5030022;28;19931;-51
2022/04/04 01:20:17;;;;;;;;;;;-2.30;99.90;;;-3.52;100.00;97567.50;5027685;28;21405;-51
2022/04/04 01:22:49;;;;;;;;;;;-2.30;99.90;;;-3.57;100.00;97559.69;5029040;28;20367;-50
2022/04/04 01:25:16;;;;;;;;;;;-2.30;99.90;;;-3.52;100.00;97565.78;5031746;28;19979;-48
2022/04/04 01:27:46;;;;;;;;;;;-2.30;99.90;;;-3.55;100.00;97563.16;5028880;28;19974;-50
2022/04/04 01:30:12;;;;;;;;;;;-2.40;99.90;;;-3.54;100.00;97559.72;5028597;28;20364;-51
2022/04/04 01:32:37;;;;;;;;;;;-2.30;99.90;;;-3.61;100.00;97562.16;5032467;28;22595;-51
2022/04/04 01:35:03;;;;;;;;;;;-2.40;99.90;;;-3.65;100.00;97556.06;5031434;28;19999;-51
2022/04/04 01:37:29;;;;;;;;;;;-2.40;99.90;;;-3.69;100.00;97555.13;5032108;28;19921;-47
2022/04/04 01:39:55;;;;;;;;;;;-2.40;99.90;;;-3.70;100.00;97544.78;5031509;28;20293;-51
2022/04/04 01:42:21;;;;;;;;;;;-2.50;99.90;;;-3.73;100.00;97543.03;5031436;28;19936;-48
2022/04/04 01:44:47;;;;;;;;;;;-2.60;99.90;;;-3.75;100.00;97544.69;5033393;28;19925;-50
2022/04/04 01:47:13;;;;;;;;;;;-2.60;99.90;;;-3.76;100.00;97537.78;5025372;28;19932;-48
2022/04/04 01:49:39;;;;;;;;;;;-2.60;99.90;;;-3.76;100.00;97542.09;5028839;28;20292;-48
2022/04/04 01:52:05;;;;;;;;;;;-2.60;99.90;;;-3.79;100.00;97542.88;5026412;28;19975;-51
2022/04/04 01:54:30;;;;;;;;;;;-2.60;99.90;;;-3.81;100.00;97543.69;5025164;28;19944;-50
2022/04/04 01:56:56;;;;;;;;;;;-2.60;99.90;;;-3.84;100.00;97544.47;5030193;28;19925;-48
2022/04/04 01:59:22;;;;;;;;;;;-2.70;99.90;;;-3.94;100.00;97530.53;5032747;28;20165;-50
2022/04/04 02:01:48;;;;;;;;;;;-2.70;99.90;;;-3.96;100.00;97519.31;5028627;28;19924;-51
2022/04/04 02:04:13;;;;;;;;;;;-2.70;99.90;;;-3.84;100.00;97541.91;5029926;28;20047;-50
2022/04/04 02:06:39;;;;;;;;;;;-2.70;99.90;;;-3.91;100.00;97532.28;5031722;28;19929;-53
2022/04/04 02:09:05;;;;;;;;;;;-2.70;99.90;;;-3.89;100.00;97530.66;5035580;28;19921;-53
2022/04/04 02:11:31;;;;;;;;;;;-2.70;99.90;;;-3.88;100.00;97527.22;5027613;28;19921;-52
2022/04/04 02:13:58;;;;;;;;;;;-2.70;99.90;;;-3.95;100.00;97522.75;5030059;28;19917;-53
2022/04/04 02:16:25;;;;;;;;;;;-2.70;99.90;;;-3.92;100.00;97533.16;5031049;28;19920;-48
2022/04/04 02:18:51;;;;;;;;;;;-2.70;99.90;;;-3.95;100.00;97520.19;5032780;28;19921;-52
2022/04/04 02:21:16;;;;;;;;;;;-2.70;99.90;;;-4.04;100.00;97508.84;5030198;28;19979;-52
2022/04/04 02:23:42;;;;;;;;;;;-2.70;99.90;;;-3.99;100.00;97518.38;5030314;28;20380;-52
2022/04/04 02:26:08;;;;;;;;;;;-2.80;99.90;;;-4.01;100.00;97509.75;5029010;28;19968;-48
2022/04/04 02:28:34;;;;;;;;;;;-2.80;99.90;;;-4.04;100.00;97507.97;5029637;28;19925;-51
2022/04/04 02:31:00;;;;;;;;;;;-2.80;99.90;;;-4.07;100.00;97513.94;5030307;28;19925;-51
2022/04/04 02:33:26;;;;;;;;;;;-2.90;99.90;;;-4.08;100.00;97513.91;5031426;28;19921;-49
2022/04/04 02:35:52;;;;;;;;;;;-2.80;99.90;;;-4.09;100.00;97512.13;5032935;28;20259;-52
2022/04/04 02:38:22;;;;;;;;;;;-2.90;99.90;;;-4.14;100.00;97516.34;5030764;28;19970;-50
2022/04/04 02:40:48;;;;;;;;;;;-2.90;99.90;;;-4.18;100.00;97504.22;5033452;28;19927;-50
2022/04/04 02:43:14;;;;;;;;;;;-2.90;99.90;;;-4.26;100.00;97493.75;5033489;28;20208;-51
2022/04/04 02:45:40;;;;;;;;;;;-3.00;99.90;;;-4.23;100.00;97504.13;5032530;28;19928;-52
2022/04/04 02:48:06;;;;;;;;;;;-3.00;99.90;;;-4.23;100.00;97504.13;5025081;28;19929;-52
2022/04/04 02:50:32;;;;;;;;;;;-3.00;99.90;;;-4.23;100.00;97501.56;5028851;28;20096;-53
2022/04/04 02:52:58;;;;;;;;;;;-3.00;99.90;;;-4.26;100.00;97498.91;5029599;28;20023;-49
2022/04/04 02:58:07;;;;;;;;;;;-3.00;99.90;;;-4.30;100.00;97497.97;5033992;28;19951;-51
2022/04/04 03:00:33;;;;;;;;;;;-3.00;99.90;;;-4.29;100.00;97494.56;5029960;28;20015;-51
2022/04/04 03:02:59;;;;;;;;;;;-3.00;99.90;;;-4.29;100.00;97491.97;5033743;28;19940;-52
2022/04/04 03:05:24;;;;;;;;;;;-3.10;99.90;;;-4.33;100.00;97491.88;5033074;28;19971;-49
2022/04/04 03:07:51;;;;;;;;;;;-3.00;99.90;;;-4.30;100.00;97490.22;5037172;28;20125;-51
2022/04/04 03:10:17;;;;;;;;;;;-3.00;99.90;;;-4.31;100.00;97490.19;5037872;28;20644;-50
2022/04/04 03:12:44;;;;;;;;;;;-3.00;99.90;;;-4.30;100.00;97489.38;5034542;28;20058;-52
2022/04/04 03:15:13;;;;;;;;;;;-3.10;99.90;;;-4.31;100.00;97490.19;5036741;28;20231;-49
2022/04/04 03:17:43;;;;;;;;;;;-3.00;99.90;;;-4.31;100.00;97490.19;5029961;28;20200;-48
2022/04/04 03:20:10;;;;;;;;;;;-3.00;99.90;;;-4.32;100.00;97491.91;5024253;28;21674;-53
2022/04/04 03:22:41;;;;;;;;;;;-3.00;99.90;;;-4.31;100.00;97496.19;5025977;28;20339;-52
2022/04/04 03:25:11;;;;;;;;;;;-3.00;99.90;;;-4.60;100.00;97446.63;5026175;28;19931;-49
2022/04/04 03:27:37;;;;;;;;;;;-3.00;99.90;;;-4.32;100.00;97501.34;5023666;28;19921;-50
2022/04/04 03:30:05;;;;;;;;;;;-3.00;99.90;;;-4.33;100.00;97485.00;5021860;28;19920;-49
2022/04/04 03:32:31;;;;;;;;;;;-3.10;99.90;;;-4.33;100.00;97484.13;5023642;28;19924;-52
2022/04/04 03:34:57;;;;;;;;;;;-3.10;99.90;;;-4.46;100.00;97467.53;5029283;28;20011;-50
2022/04/04 03:37:24;;;;;;;;;;;-3.10;99.90;;;-4.31;100.00;97485.03;5034352;28;20297;-53
2022/04/04 03:39:50;;;;;;;;;;;-3.10;99.90;;;-4.32;100.00;97483.31;5032826;28;20007;-52
2022/04/04 03:42:16;;;;;;;;;;;-3.10;99.90;;;-4.37;100.00;97475.47;5027802;28;19987;-48
2022/04/04 03:44:41;;;;;;;;;;;-3.10;99.90;;;-4.33;100.00;97477.28;5030181;28;20431;-50
2022/04/04 03:47:07;;;;;;;;;;;-3.10;99.90;;;-4.30;100.00;97481.66;5025076;28;20469;-53
2022/04/04 03:49:33;;;;;;;;;;;-3.00;99.90;;;-4.31;100.00;97479.88;5025955;28;19921;-53
2022/04/04 03:51:59;;;;;;;;;;;-3.00;99.90;;;-4.32;100.00;97478.16;5026569;28;20502;-49
2022/04/04 03:54:24;;;;;;;;;;;-3.00;99.90;;;-4.30;100.00;97481.66;5034243;28;19967;-48
2022/04/04 03:56:50;;;;;;;;;;;-3.00;99.90;;;-4.31;100.00;97485.91;5031238;28;20291;-51
2022/04/04 03:59:16;;;;;;;;;;;-3.00;99.90;;;-4.31;100.00;97477.31;5029314;28;19933;-50
2022/04/04 04:01:41;;;;;;;;;;;-3.00;99.90;;;-4.32;100.00;97488.47;5027523;28;19925;-52
2022/04/04 04:04:07;;;;;;;;;;;-3.10;99.90;;;-4.36;100.00;97476.34;5032758;28;19964;-49
2022/04/04 04:06:33;;;;;;;;;;;-3.00;99.90;;;-4.31;100.00;97488.47;5031828;28;20307;-52
2022/04/04 04:08:59;;;;;;;;;;;-3.00;99.90;;;-4.30;100.00;97489.38;5031242;28;19920;-50
2022/04/04 04:11:25;;;;;;;;;;;-3.00;99.90;;;-4.29;100.00;97483.38;5030233;28;19981;-50
2022/04/04 04:13:51;;;;;;;;;;;-3.00;99.90;;;-4.28;100.00;97477.41;5033783;28;19916;-48
2022/04/04 04:16:16;;;;;;;;;;;-3.00;99.90;;;-4.31;100.00;97470.44;5020166;28;19948;-53
2022/04/04 04:18:42;;;;;;;;;;;-3.00;99.90;;;-4.48;100.00;97436.63;5031715;28;20054;-47
2022/04/04 04:21:09;;;;;;;;;;;-3.00;99.90;;;-4.25;100.00;97474.91;5033135;28;20060;-49
2022/04/04 04:23:37;;;;;;;;;;;-3.00;99.90;;;-4.23;100.00;97466.34;5036728;28;19921;-49
2022/04/04 04:26:08;;;;;;;;;;;-3.00;99.90;;;-4.23;100.00;97478.38;5032764;28;20039;-50
2022/04/04 04:28:35;;;;;;;;;;;-3.00;99.90;;;-4.28;100.00;97465.38;5034419;28;19925;-51
2022/04/04 04:31:01;;;;;;;;;;;-3.00;99.90;;;-4.23;100.00;97460.34;5029504;28;19925;-51
2022/04/04 04:33:27;;;;;;;;;;;-3.00;99.90;;;-4.24;100.00;97468.91;5030628;28;19921;-50
2022/04/04 04:35:53;;;;;;;;;;;-3.00;99.90;;;-4.26;100.00;97476.59;5030316;28;19924;-50
2022/04/04 04:38:19;;;;;;;;;;;-3.00;99.90;;;-4.30;100.00;97467.06;5054632;22;19936;-46
2022/04/04 04:40:44;;;;;;;;;;;-3.00;99.90;;;-4.29;100.00;97468.81;5059394;28;19959;-47
2022/04/04 04:43:10;;;;;;;;;;;-3.00;99.90;;;-4.40;100.00;97449.66;5069993;28;20359;-46
2022/04/04 04:45:36;;;;;;;;;;;-3.00;99.90;;;-4.33;100.00;97464.41;5068485;28;19986;-46
2022/04/04 04:48:02;;;;;;;;;;;-3.00;99.90;;;-4.33;100.00;97469.56;5053743;28;19969;-49
2022/04/04 04:50:28;;;;;;;;;;;-3.00;99.90;;;-4.32;100.00;97461.00;5043165;28;19920;-46
2022/04/04 04:52:55;;;;;;;;;;;-3.00;99.90;;;-4.31;100.00;97459.28;5051582;28;21975;-49
2022/04/04 04:55:21;;;;;;;;;;;-3.00;99.90;;;-4.36;100.00;97450.59;5053098;28;20391;-48
2022/04/04 04:57:47;;;;;;;;;;;-3.00;99.90;;;-4.30;100.00;97464.47;5040168;28;20274;-46
2022/04/04 05:00:16;;;;;;;;;;;-3.00;99.90;;;-4.28;100.00;97461.94;5045876;28;20022;-50
2022/04/04 05:02:42;;;;;;;;;;;-3.00;99.90;;;-4.29;100.00;97461.09;5049591;28;19924;-47
2022/04/04 05:05:08;;;;;;;;;;;-3.00;99.90;;;-4.23;100.00;97463.78;5043095;28;20379;-50
2022/04/04 05:07:34;;;;;;;;;;;-3.00;99.90;;;-4.25;100.00;97454.28;5049992;28;19972;-50
2022/04/04 05:10:00;;;;;;;;;;;-3.00;99.90;;;-4.18;100.00;97458.75;5045542;28;20047;-47
2022/04/04 05:12:25;;;;;;;;;;;-3.00;99.90;;;-4.19;100.00;97462.16;5043678;28;19927;-47
2022/04/04 05:14:51;;;;;;;;;;;-2.90;99.90;;;-4.17;100.00;97457.88;5050433;28;20667;-50
2022/04/04 05:17:17;;;;;;;;;;;-2.90;99.90;;;-4.18;100.00;97445.88;5052326;28;19975;-48
2022/04/04 05:19:42;;;;;;;;;;;-2.90;99.90;;;-4.14;100.00;97462.25;5038987;28;19926;-48
2022/04/04 05:22:08;;;;;;;;;;;-2.90;99.90;;;-4.19;100.00;97448.41;5051851;28;20237;-50
2022/04/04 05:24:35;;;;;;;;;;;-2.90;99.90;;;-4.13;100.00;97459.69;5050986;28;19970;-48
2022/04/04 05:27:00;;;;;;;;;;;-2.80;99.90;;;-4.13;100.00;97448.53;5047506;28;20052;-47
2022/04/04 05:29:26;;;;;;;;;;;-2.90;99.90;;;-4.08;100.00;97458.09;5043717;28;20029;-47
2022/04/04 05:31:55;;;;;;;;;;;-2.80;99.90;;;-4.07;100.00;97454.69;5047834;28;20402;-50
2022/04/04 05:34:22;;;;;;;;;;;-2.80;99.90;;;-4.03;100.00;97460.78;5044277;28;19924;-50
2022/04/04 05:36:49;;;;;;;;;;;-2.80;99.90;;;-4.00;100.00;97459.97;5051855;28;19989;-47
2022/04/04 05:39:14;;;;;;;;;;;-2.80;99.90;;;-3.97;100.00;97458.31;5046732;28;19923;-49
2022/04/04 05:41:40;;;;;;;;;;;-2.70;99.90;;;-3.86;100.00;97450.81;5050211;28;19920;-47
2022/04/04 05:44:06;;;;;;;;;;;-2.60;99.90;;;-3.76;100.00;97459.63;5050198;28;19929;-46
2022/04/04 05:46:32;;;;;;;;;;;-2.60;99.90;;;-3.95;100.00;97418.00;5045609;28;19943;-50
2022/04/04 05:49:00;;;;;;;;;;;-2.50;99.90;;;-3.62;100.00;97465.03;5050028;28;19970;-50
2022/04/04 05:51:28;;;;;;;;;;;-2.40;99.90;;;-3.58;100.00;97461.69;5046759;28;20433;-48
2022/04/04 05:53:54;;;;;;;;;;;-2.40;99.90;;;-3.52;100.00;97459.22;5051607;28;20375;-47
2022/04/04 05:56:21;;;;;;;;;;;-2.30;99.90;;;-3.44;100.00;97459.38;5065233;28;19936;-52
2022/04/04 05:58:48;;;;;;;;;;;-2.20;99.90;;;-3.35;100.00;97463.00;5050248;28;20024;-46
2022/04/04 06:01:14;;;;;;;;;;;-2.20;99.90;;;-3.32;100.00;97450.16;5042859;28;19927;-51
2022/04/04 06:03:40;;;;;;;;;;;-2.10;99.90;;;-3.16;100.00;97459.06;5046391;28;20702;-47
2022/04/04 06:06:05;;;;;;;;;;;-2.00;99.90;;;-3.07;100.00;97464.38;5049893;28;19917;-49
2022/04/04 06:08:31;;;;;;;;;;;-1.90;99.90;;;-3.00;100.00;97462.75;5049257;28;19917;-48
2022/04/04 06:10:57;;;;;;;;;;;-1.80;99.90;;;-3.00;100.00;97442.09;5047006;28;20359;-46
2022/04/04 06:13:23;;;;;;;;;;;-1.80;99.90;;;-2.98;100.00;97440.44;5044773;28;19947;-49
2022/04/04 06:15:48;;;;;;;;;;;-1.70;99.90;;;-2.79;100.00;97453.66;5037240;28;19927;-50
2022/04/04 06:18:15;;;;;;;;;;;-1.60;99.90;;;-2.69;100.00;97458.97;5039840;28;19916;-48
2022/04/04 06:20:41;;;;;;;;;;;-1.50;99.90;;;-2.60;100.00;97453.09;5040527;28;19975;-49
2022/04/04 06:23:08;;;;;;;;;;;-1.50;99.90;;;-2.50;100.00;97456.69;5043907;28;19927;-50
2022/04/04 06:25:34;;;;;;;;;;;-1.40;99.90;;;-2.39;100.00;97456.84;5041327;28;20425;-47
2022/04/04 06:27:59;;;;;;;;;;;-1.20;99.90;;;-2.45;100.00;97442.13;5038728;28;19959;-47
2022/04/04 06:30:26;;;;;;;;;;;-1.10;99.90;;;-2.20;100.00;97458.00;5040352;28;19924;-46
2022/04/04 06:32:52;;;;;;;;;;;-1.10;99.90;;;-2.10;100.00;97459.84;5043309;28;20282;-49
2022/04/04 06:35:18;;;;;;;;;;;-1.00;99.90;;;-2.03;100.00;97453.91;5039502;28;19924;-49
2022/04/04 06:37:45;;;;;;;;;;;-0.90;99.90;;;-1.95;100.00;97447.13;5044173;28;20232;-45
2022/04/04 06:40:12;;;;;;;;;;;-0.80;99.90;;;-1.86;100.00;97448.97;5043590;28;20644;-46
2022/04/04 06:42:39;;;;;;;;;;;-0.70;99.90;;;-1.84;100.00;97433.50;5047255;28;20677;-47
2022/04/04 06:45:06;;;;;;;;;;;-0.60;99.90;;;-1.60;100.00;97458.75;5047668;28;20354;-47
2022/04/04 06:47:32;;;;;;;;;;;-0.50;99.90;;;-1.55;100.00;97436.41;5044634;28;20514;-47
2022/04/04 06:49:59;;;;;;;;;;;-0.30;99.90;;;-1.45;99.15;97440.84;5043068;28;20566;-46
2022/04/04 06:52:25;;;;;;;;;;;-0.30;99.90;;;-1.29;98.27;97451.34;5043111;28;20116;-48
2022/04/04 06:54:52;;;;;;;;;;;-0.10;99.90;;;-1.17;97.38;97454.97;5049158;28;19924;-48
2022/04/04 06:57:18;;;;;;;;;;;-0.10;99.90;;;-1.04;96.15;97457.63;5036670;28;19979;-47
2022/04/04 06:59:44;;;;;;;;;;;0.10;99.90;;;-1.08;95.00;97425.69;5033868;28;20366;-47
2022/04/04 07:02:10;;;;;;;;;;;0.20;99.90;;;-0.85;93.58;97440.56;5042870;28;19955;-47
2022/04/04 07:04:37;;;;;;;;;;;0.30;99.90;;;-0.75;92.16;97441.50;5040125;28;20432;-48
2022/04/04 07:07:06;;;;;;;;;;;0.40;99.90;;;-0.62;91.27;97449.38;5041681;28;20873;-47
2022/04/04 07:09:32;;;;;;;;;;;0.50;99.90;;;-0.55;88.65;97444.28;5044564;28;19947;-47
2022/04/04 07:11:58;;;;;;;;;;;0.60;99.90;;;-0.42;87.93;97451.28;5045043;28;19924;-45
2022/04/04 07:14:24;;;;;;;;;;;0.70;99.90;;;-0.30;85.31;97445.31;5043503;28;20022;-46
2022/04/04 07:16:52;;;;;;;;;;;0.80;99.90;;;-0.18;84.61;97447.97;5053391;28;19916;-46
2022/04/04 07:19:22;;;;;;;;;;;0.90;99.90;;;-0.04;84.40;97443.72;5047656;28;19928;-43
2022/04/04 07:21:49;;;;;;;;;;;1.00;99.90;;;0.08;83.98;97439.50;5046311;28;20211;-45
2022/04/04 07:24:15;;;;;;;;;;;1.10;99.90;;;0.10;78.37;97438.63;5043357;28;19932;-44
2022/04/04 07:26:40;;;;;;;;;;;1.20;99.90;;;0.15;77.04;97434.34;5050441;28;20660;-44
2022/04/04 07:29:06;;;;;;;;;;;1.30;99.90;;;0.29;76.32;97446.50;5053296;28;19963;-46
2022/04/04 07:31:32;;;;;;;;;;;1.40;99.90;;;0.39;76.29;97443.06;5049593;28;19959;-47
2022/04/04 07:33:57;;;;;;;;;;;1.50;99.90;;;0.47;75.81;97435.34;5052405;28;20367;-43
2022/04/04 07:36:23;;;;;;;;;;;1.50;99.90;;;0.44;75.72;97428.41;5049722;28;19925;-44
2022/04/04 07:38:48;;;;;;;;;;;1.60;99.90;;;0.58;75.59;97438.84;5050184;28;20027;-43
2022/04/04 07:41:14;;;;;;;;;;;1.70;99.90;;;0.66;74.97;97438.84;5045724;28;19935;-45
2022/04/04 07:43:40;;;;;;;;;;;1.70;99.90;;;0.73;73.29;97445.78;5048033;28;20044;-45
2022/04/04 07:46:05;;;;;;;;;;;1.80;99.90;;;0.79;74.12;97435.44;5047479;28;19920;-43
2022/04/04 07:48:32;;;;;;;;;;;1.90;99.90;;;0.90;74.37;97433.72;5049110;28;20424;-46
2022/04/04 07:50:58;;;;;;;;;;;2.00;99.90;;;0.92;72.51;97434.59;5049466;28;19923;-43
2022/04/04 07:53:23;;;;;;;;;;;2.00;99.90;;;0.98;72.55;97435.47;5047532;28;20001;-44
2022/04/04 07:55:49;;;;;;;;;;;2.10;99.90;;;0.94;72.52;97417.28;5053829;28;19917;-48
2022/04/04 07:58:16;;;;;;;;;;;2.10;99.90;;;1.06;70.56;97433.72;5054269;28;19924;-44
2022/04/04 08:00:42;;;;;;;;;;;2.10;99.90;;;1.00;71.46;97416.41;5048586;28;20369;-46
2022/04/04 08:03:08;;;;;;;;;;;2.20;99.90;;;1.14;71.76;97434.63;5052558;28;20300;-44
2022/04/04 08:05:33;;;;;;;;;;;2.20;99.90;;;1.21;71.15;97419.91;5048494;28;19931;-45
2022/04/04 08:07:59;;;;;;;;;;;2.30;99.90;;;1.34;71.50;97427.69;5053498;28;20236;-48
2022/04/04 08:10:25;;;;;;;;;;;2.40;99.90;;;1.40;71.46;97411.25;5050793;28;19921;-48
2022/04/04 08:12:51;;;;;;;;;;;2.50;99.90;;;1.60;69.43;97428.53;5049441;28;19954;-43
2022/04/04 08:15:17;;;;;;;;;;;2.60;99.90;;;1.70;68.78;97425.91;5050336;28;19969;-44
2022/04/04 08:17:42;;;;;;;;;;;2.70;99.90;;;1.78;66.55;97427.69;5051466;28;20413;-45
2022/04/04 08:20:08;;;;;;;;;;;2.80;99.90;;;1.78;63.38;97415.53;5051188;28;19932;-44
2022/04/04 08:22:42;;;;;;;;;;;2.80;99.90;;;1.82;61.53;97406.84;5051043;28;20284;-45
2022/04/04 08:25:08;;;;;;;;;;;2.90;99.90;;;1.96;62.98;97417.22;5048136;28;19932;-44
2022/04/04 08:27:35;;;;;;;;;;;3.00;99.90;;;2.03;61.09;97399.88;5051347;28;19972;-47
2022/04/04 08:30:06;;;;;;;;;;;3.10;99.90;;;2.13;59.33;97413.69;5051223;28;19931;-44
2022/04/04 08:32:37;;;;;;;;;;;3.10;99.90;;;2.27;60.72;97401.50;5052405;28;20007;-45
2022/04/04 08:35:04;;;;;;;;;;;3.30;99.90;;;2.39;58.64;97404.06;5051030;28;20607;-46
2022/04/04 08:37:31;;;;;;;;;;;3.40;99.90;;;2.49;57.34;97397.06;5045403;28;19947;-48
2022/04/04 08:39:57;;;;;;;;;;;3.50;99.90;;;2.62;58.59;97398.75;5050203;28;19924;-44
2022/04/04 08:42:26;;;;;;;;;;;3.60;99.90;;;2.58;55.93;97402.22;5049438;28;20346;-46
2022/04/04 08:44:57;;;;;;;;;;;3.60;99.90;;;2.60;57.61;97400.50;5051253;28;19916;-45
2022/04/04 08:47:24;;;;;;;;;;;3.60;99.90;;;2.64;56.33;97397.00;5053054;28;20428;-46
2022/04/04 08:49:53;;;;;;;;;;;3.60;99.90;;;2.79;55.29;97397.78;5049924;28;19917;-46
2022/04/04 08:52:19;;;;;;;;;;;3.70;99.90;;;2.68;57.25;97395.25;5053331;28;19959;-46
2022/04/04 08:54:45;;;;;;;;;;;3.70;99.90;;;2.60;53.86;97378.78;5051566;28;20482;-46
2022/04/04 08:57:11;;;;;;;;;;;3.70;99.90;;;2.66;54.77;97383.97;5046506;28;20042;-45
2022/04/04 08:59:38;;;;;;;;;;;3.70;99.90;;;2.79;55.98;97400.38;5047431;28;19972;-47
2022/04/04 09:02:04;;;;;;;;;;;3.70;99.90;;;2.89;56.30;97390.75;5049571;28;19923;-48
2022/04/04 09:04:32;;;;;;;;;;;3.80;99.90;;;2.99;56.31;97377.66;5045362;28;19916;-45
2022/04/04 09:06:57;;;;;;;;;;;3.90;99.90;;;3.07;56.12;97377.63;5046207;28;20388;-46
2022/04/04 09:09:37;;;;;;;;;;;4.00;99.90;;;3.15;55.80;97373.19;5051769;28;19981;-45
2022/04/04 09:12:11;;;;;;;;;;;4.10;99.90;;;3.17;55.80;97361.00;5051326;28;19929;-45
2022/04/04 09:15:09;;;;;;;;;;;4.20;99.90;;;3.22;54.37;97367.06;5050623;28;19943;-46
2022/04/04 09:17:35;;;;;;;;;;;4.20;99.90;;;3.19;53.92;97366.22;5039394;28;19931;-45
2022/04/04 09:20:08;;;;;;;;;;;4.20;99.20;;;3.14;53.26;97366.28;5055072;28;19924;-46
2022/04/04 09:22:33;;;;;;;;;;;4.10;98.30;;;3.08;50.68;97355.88;5044343;28;20278;-49
2022/04/04 09:25:02;;;;;;;;;;;4.10;97.80;;;3.04;50.63;97351.59;5049782;28;19962;-48
2022/04/04 09:27:36;;;;;;;;;;;4.10;97.00;;;3.08;52.63;97353.28;5047398;28;20029;-47
2022/04/04 09:30:06;;;;;;;;;;;4.10;97.70;;;3.05;52.00;97350.69;5050833;28;19977;-45
2022/04/04 09:32:38;;;;;;;;;;;4.10;97.80;;;2.94;49.32;97342.94;5053897;28;19916;-45
2022/04/04 09:35:10;;;;;;;;;;;4.00;95.70;;;2.90;50.49;97337.78;5053146;28;19924;-45
2022/04/04 09:37:37;;;;;;;;;;;4.00;96.40;;;2.99;52.62;97335.13;5050078;28;20213;-45
2022/04/04 09:40:09;;;;;;;;;;;4.00;97.30;;;2.99;51.46;97332.50;5049940;28;19925;-46
2022/04/04 09:42:58;;;;;;;;;;;4.00;96.80;;;3.01;51.69;97330.75;5048173;28;20035;-45
2022/04/04 09:45:26;;;;;;;;;;;4.00;96.30;;;3.12;51.59;97322.84;5049607;28;20448;-46
2022/04/04 09:47:55;;;;;;;;;;;4.10;96.60;;;3.19;52.55;97319.31;5049713;28;19920;-46
2022/04/04 09:50:37;;;;;;;;;;;4.20;97.20;;;3.26;50.04;97313.16;5049599;28;20402;-45
2022/04/04 09:53:04;;;;;;;;;;;4.30;96.10;;;3.29;51.29;97313.13;5047056;28;19994;-44
2022/04/04 09:55:32;;;;;;;;;;;4.30;96.10;;;3.41;53.19;97314.75;5043108;28;19920;-48
2022/04/04 09:57:59;;;;;;;;;;;4.40;97.10;;;3.46;52.91;97305.16;5050361;28;20640;-47
2022/04/04 10:00:25;;;;;;;;;;;4.50;97.80;;;3.44;52.09;97299.09;5050513;28;19927;-45
2022/04/04 10:02:54;;;;;;;;;;;4.40;96.60;;;3.50;54.20;97298.16;5053176;28;21767;-46
2022/04/04 10:05:20;;;;;;;;;;;4.50;97.70;;;3.55;54.63;97298.97;5050554;28;19921;-45
2022/04/04 10:07:46;;;;;;;;;;;4.50;98.30;;;3.59;55.69;97287.66;5050522;28;19924;-47
2022/04/04 10:10:12;;;;;;;;;;;4.60;98.90;;;3.61;55.21;97280.66;5048596;28;20315;-44
2022/04/04 10:12:37;;;;;;;;;;;4.60;98.70;;;3.57;52.74;97274.63;5047870;28;19920;-45
2022/04/04 10:15:05;;;;;;;;;;;4.60;97.10;;;3.69;55.82;97284.03;5053210;28;19921;-47
2022/04/04 10:17:31;;;;;;;;;;;4.60;98.70;;;3.81;56.28;97275.22;5050639;28;19993;-46
2022/04/04 10:19:57;;;;;;;;;;;4.80;99.70;;;3.86;54.44;97275.13;5056941;28;19920;-49
2022/04/04 10:22:23;;;;;;;;;;;4.90;98.30;;;3.88;54.74;97265.56;5068188;28;19921;-45
2022/04/04 10:24:50;;;;;;;;;;;4.90;98.40;;;3.82;56.76;97240.41;5056437;28;20556;-47
2022/04/04 10:27:19;;;;;;;;;;;4.90;98.80;;;4.06;55.11;97261.88;5050886;28;19928;-45
2022/04/04 10:29:47;;;;;;;;;;;5.00;98.90;;;4.01;54.90;97243.66;5056261;28;20023;-45
2022/04/04 10:32:24;;;;;;;;;;;5.10;98.30;;;4.14;54.64;97249.56;5055064;28;20376;-45
2022/04/04 10:34:51;;;;;;;;;;;5.20;97.80;;;4.12;53.36;97246.13;5054459;28;19924;-45
2022/04/04 10:37:19;;;;;;;;;;;5.10;97.50;;;4.03;52.72;97241.03;5050605;28;19924;-47
2022/04/04 10:39:47;;;;;;;;;;;5.10;96.90;;;3.94;53.92;97236.78;5051241;28;19925;-46
2022/04/04 10:42:24;;;;;;;;;;;5.00;97.40;;;3.93;54.44;97233.31;5081168;22;21712;-47
2022/04/04 10:44:57;;;;;;;;;;;5.00;97.30;;;3.95;55.72;97221.13;5076323;28;19925;-48
2022/04/04 10:47:24;;;;;;;;;;;5.00;98.30;;;3.93;54.91;97233.31;5073196;28;19993;-50
2022/04/04 10:49:50;;;;;;;;;;;4.90;99.00;;;3.98;55.26;97222.81;5070957;28;20437;-46
2022/04/04 10:52:21;;;;;;;;;;;4.90;98.30;;;3.76;53.08;97215.25;5069581;28;19919;-48
2022/04/04 10:54:48;;;;;;;;;;;4.80;96.70;;;3.75;52.72;97220.50;5060489;28;20437;-49
2022/04/04 10:57:18;;;;;;;;;;;4.70;96.70;;;3.87;54.59;97222.09;5065347;28;21855;-49
2022/04/04 10:59:47;;;;;;;;;;;4.80;98.00;;;3.87;49.93;97215.13;5071132;28;19927;-48
2022/04/04 11:02:19;;;;;;;;;;;4.90;94.40;;;3.92;51.76;97200.28;5062839;28;20332;-51
2022/04/04 11:07:39;;;;;;;;;;;4.90;95.40;;;3.98;55.33;97194.09;5071472;28;19930;-48
2022/04/04 11:10:06;;;;;;;;;;;5.00;95.90;;;4.10;53.40;97193.06;5072942;28;19916;-47
2022/04/04 11:12:55;;;;;;;;;;;5.10;97.50;;;4.11;51.50;97187.84;5069488;28;19947;-51
2022/04/04 11:15:42;;;;;;;;;;;5.10;96.00;;;4.19;51.87;97182.50;5068521;28;19924;-49
2022/04/04 11:18:08;;;;;;;;;;;5.10;95.80;;;4.24;52.16;97180.69;5073140;28;20352;-46
2022/04/04 11:20:36;;;;;;;;;;;5.20;95.80;;;4.25;51.25;97174.56;5069926;28;20007;-49
2022/04/04 11:23:09;;;;;;;;;;;5.20;95.40;;;4.25;52.49;97165.88;5069108;28;19988;-49
2022/04/04 11:25:37;;;;;;;;;;;5.20;95.90;;;4.25;51.99;97156.28;5056922;28;19924;-51